Time;durP1;ratioP1;P1;durP2;ratioP2;P2;SDS_P1;SDS_P2;PMS_P1;PMS_P2;Temp;Humidity;BMP_temperature;BMP_pressure;BME280_temperature;BME280_humidity;BME280_pressure;Samples;Min_cycle;Max_cycle;Signal;HPM_P1;HPM_P2
2023/05/24 07:03:42;;;;;;;11.45;5.83;;;;;;;22.88;39.27;100072.39;1645240;85;25903;-74
2023/05/24 07:06:12;;;;;;;8.70;5.55;;;;;;;22.72;39.39;100074.20;1691090;83;27005;-74
2023/05/24 07:08:37;;;;;;;6.70;5.08;;;;;;;22.44;39.54;100075.02;1695395;84;25542;-71
2023/05/24 07:11:03;;;;;;;10.50;5.70;;;;;;;22.37;39.53;100071.11;1687743;84;25478;-71
2023/05/24 07:13:29;;;;;;;8.48;5.72;;;;;;;22.38;40.15;100075.42;1659190;85;25597;-71
2023/05/24 07:15:57;;;;;;;10.15;4.75;;;;;;;22.67;40.86;100078.14;1647752;86;25609;-71
2023/05/24 07:18:23;;;;;;;9.68;5.50;;;;;;;23.12;40.65;100087.30;1644150;85;27367;-72
2023/05/24 07:20:50;;;;;;;10.93;6.12;;;;;;;23.45;39.74;100081.85;1691793;83;25475;-73
2023/05/24 07:23:16;;;;;;;12.15;5.45;;;;;;;23.73;39.57;100093.91;1663672;86;25450;-72
2023/05/24 07:25:42;;;;;;;11.05;5.80;;;;;;;23.87;39.60;100087.55;1646107;86;26181;-71
2023/05/24 07:28:10;;;;;;;9.85;5.58;;;;;;;24.08;39.17;100096.30;1647899;85;25585;-68
2023/05/24 07:30:38;;;;;;;7.63;6.60;;;;;;;24.20;38.25;100089.49;1649401;86;27292;-69
2023/05/24 07:33:04;;;;;;;10.72;5.08;;;;;;;24.47;38.11;100093.80;1644524;87;25639;-72
2023/05/24 07:35:31;;;;;;;9.08;5.12;;;;;;;24.75;37.81;100100.27;1644766;87;25656;-71
2023/05/24 07:37:58;;;;;;;10.45;5.12;;;;;;;24.77;37.51;100102.83;1644656;87;25772;-70
2023/05/24 07:40:25;;;;;;;7.53;5.05;;;;;;;24.77;37.36;100106.17;1644649;87;25479;-67
2023/05/24 07:42:53;;;;;;;9.33;6.00;;;;;;;24.75;37.20;100113.50;1644955;87;27308;-70
2023/05/24 07:45:19;;;;;;;6.50;5.62;;;;;;;24.73;37.42;100113.73;1644621;87;25436;-70
2023/05/24 07:47:45;;;;;;;8.10;5.70;;;;;;;24.86;37.69;100112.02;1644723;87;25627;-72
2023/05/24 07:50:11;;;;;;;10.68;5.33;;;;;;;25.29;37.35;100119.86;1644657;87;25669;-73
2023/05/24 07:52:38;;;;;;;6.33;4.90;;;;;;;25.51;37.17;100116.83;1644682;87;25578;-73
2023/05/24 07:55:06;;;;;;;5.25;4.62;;;;;;;25.70;36.31;100119.54;1644987;87;27371;-74
2023/05/24 07:57:33;;;;;;;13.75;5.37;;;;;;;25.79;36.39;100117.63;1644572;87;25427;-68
2023/05/24 08:00:05;;;;;;;8.03;4.83;;;;;;;25.86;34.38;100116.14;1644783;87;25196;-73
2023/05/24 08:02:27;;;;;;;11.90;5.42;;;;;;;25.67;35.33;100123.14;1643779;87;25769;-73
2023/05/24 08:04:55;;;;;;;9.10;5.22;;;;;;;25.52;35.76;100128.87;1644636;87;25457;-72
2023/05/24 08:07:22;;;;;;;7.45;4.53;;;;;;;25.46;36.00;100129.14;1644591;87;27400;-70
2023/05/24 08:09:48;;;;;;;7.53;4.62;;;;;;;25.33;35.57;100130.27;1644626;87;25437;-71
2023/05/24 08:12:14;;;;;;;14.35;5.37;;;;;;;25.19;35.62;100129.05;1644705;87;25679;-61
2023/05/24 08:14:41;;;;;;;11.12;5.00;;;;;;;25.22;35.02;100122.69;1644631;87;25685;-63
2023/05/24 08:17:07;;;;;;;9.18;4.92;;;;;;;25.22;35.50;100123.30;1644781;87;25559;-63
2023/05/24 08:19:35;;;;;;;10.20;5.12;;;;;;;25.33;35.98;100123.97;1644573;87;27336;-62
2023/05/24 08:22:05;;;;;;;5.37;4.80;;;;;;;25.73;36.08;100120.09;1644458;87;25429;-64
2023/05/24 08:24:31;;;;;;;11.53;4.93;;;;;;;26.20;34.72;100127.73;1644799;87;25538;-64
2023/05/24 08:26:59;;;;;;;9.18;4.45;;;;;;;26.51;33.58;100128.43;1644626;87;26121;-65
2023/05/24 08:29:25;;;;;;;5.08;4.17;;;;;;;26.91;34.68;100129.13;1644624;87;25554;-62
2023/05/24 08:31:51;;;;;;;10.82;4.80;;;;;;;27.41;33.72;100134.33;1644496;86;27408;-63
2023/05/24 08:34:17;;;;;;;9.90;4.70;;;;;;;27.78;34.33;100128.95;1644381;87;25628;-62
2023/05/24 08:36:44;;;;;;;6.00;4.50;;;;;;;28.45;33.73;100131.97;1644484;87;25651;-62
2023/05/24 08:39:12;;;;;;;8.17;4.77;;;;;;;28.93;32.73;100131.75;1644669;87;25613;-63
2023/05/24 08:41:38;;;;;;;6.42;4.92;;;;;;;29.38;32.25;100131.52;1644541;87;25443;-68
2023/05/24 08:44:09;;;;;;;7.92;5.12;;;;;;;29.70;31.95;100129.78;1623895;87;27922;-65
2023/05/24 08:46:38;;;;;;;7.97;4.55;;;;;;;30.06;31.39;100127.30;1644533;87;25556;-64
2023/05/24 08:49:07;;;;;;;;;;;;;;;30.51;30.64;100135.39;1646983;87;25632;-66
2023/05/24 08:51:40;;;;;;;7.70;4.42;;;;;;;30.72;29.85;100138.05;1644530;87;25672;-65
2023/05/24 08:54:14;;;;;;;6.70;4.40;;;;;;;30.83;28.85;100139.06;1619458;88;25616;-64
2023/05/24 08:56:41;;;;;;;7.70;4.05;;;;;;;30.79;28.78;100137.03;1619069;87;27057;-65
2023/05/24 08:59:12;;;;;;;10.60;4.22;;;;;;;30.82;28.46;100134.73;1619538;87;25705;-64
2023/05/24 09:01:41;;;;;;;7.62;4.35;;;;;;;30.87;27.98;100138.94;1678891;85;25715;-64
2023/05/24 09:04:10;;;;;;;4.87;4.10;;;;;;;30.99;28.70;100145.73;1673520;84;25637;-65
2023/05/24 09:06:36;;;;;;;8.28;4.37;;;;;;;31.32;28.34;100145.36;1683979;84;25544;-64
2023/05/24 09:09:08;;;;;;;8.45;4.67;;;;;;;31.25;27.37;100144.38;1684637;85;27549;-64
2023/05/24 09:11:37;;;;;;;5.20;4.25;;;;;;;31.49;27.35;100139.70;1678654;85;25609;-69
2023/05/24 09:14:06;;;;;;;5.80;4.22;;;;;;;31.61;27.28;100145.84;1675356;84;25806;-66
2023/05/24 09:16:35;;;;;;;6.22;4.10;;;;;;;31.79;26.43;100140.17;1668015;84;27867;-66
2023/05/24 09:19:02;;;;;;;5.67;4.03;;;;;;;31.58;25.99;100151.58;1681571;84;25452;-66
2023/05/24 09:21:29;;;;;;;8.33;4.40;;;;;;;31.15;26.48;100156.72;1683309;84;27316;-66
2023/05/24 09:24:00;;;;;;;7.70;5.70;;;;;;;30.71;26.52;100156.64;1683359;84;25503;-66
2023/05/24 09:26:29;;;;;;;8.18;5.00;;;;;;;30.46;27.27;100158.88;1653444;86;25526;-66
2023/05/24 09:28:57;;;;;;;8.65;4.30;;;;;;;30.53;27.46;100159.44;1650148;86;25679;-66
2023/05/24 09:31:38;;;;;;;10.37;4.20;;;;;;;30.67;27.19;100160.19;1649915;86;25828;-67
2023/05/24 09:34:13;;;;;;;5.80;4.08;;;;;;;30.42;27.05;100156.22;1691701;82;27908;-67
2023/05/24 09:36:41;;;;;;;4.65;4.22;;;;;;;30.21;27.75;100161.09;1664320;85;25598;-67
2023/05/24 09:39:10;;;;;;;4.47;4.08;;;;;;;30.03;27.95;100165.83;1645069;86;25854;-67
2023/05/24 09:41:38;;;;;;;7.70;4.67;;;;;;;29.79;27.83;100166.15;1687144;83;25700;-67
2023/05/24 09:44:05;;;;;;;5.10;4.20;;;;;;;29.55;28.20;100168.44;1652007;86;25634;-67
2023/05/24 09:46:37;;;;;;;8.48;4.85;;;;;;;29.38;28.13;100172.67;1645956;86;27901;-67
2023/05/24 09:49:05;;;;;;;4.62;3.77;;;;;;;29.50;28.00;100170.38;1690976;84;25883;-67
2023/05/24 09:51:38;;;;;;;7.25;3.85;;;;;;;29.75;28.30;100165.45;1653784;86;25548;-67
2023/05/24 09:54:06;;;;;;;6.10;4.17;;;;;;;29.95;28.60;100169.44;1642483;86;25800;-67
2023/05/24 09:56:33;;;;;;;;;;;;;;;29.95;28.28;100163.86;1702129;83;25383;-67
2023/05/24 09:59:07;;;;;;;6.60;3.80;;;;;;;29.89;27.32;100165.66;1690648;84;27399;-67
2023/05/24 10:01:35;;;;;;;13.05;4.75;;;;;;;29.74;27.54;100170.23;1695191;83;25839;-68
2023/05/24 10:04:05;;;;;;;8.45;4.40;;;;;;;29.65;27.38;100164.55;1665037;83;25577;-62
2023/05/24 10:06:35;;;;;;;9.45;4.20;;;;;;;29.64;27.68;100167.78;1640203;86;25722;-64
2023/05/24 10:09:03;;;;;;;6.50;4.00;;;;;;;29.72;27.91;100174.08;1633037;87;25520;-64
2023/05/24 10:11:35;;;;;;;7.22;4.12;;;;;;;29.87;27.76;100167.50;1658589;86;27325;-64
2023/05/24 10:14:05;;;;;;;8.80;4.47;;;;;;;29.83;27.85;100166.84;1690117;83;25854;-64
2023/05/24 10:16:32;;;;;;;6.42;3.50;;;;;;;29.82;27.21;100171.46;1655622;86;25839;-63
2023/05/24 10:18:59;;;;;;;6.58;4.33;;;;;;;29.75;26.95;100161.28;1648878;86;25692;-63
2023/05/24 10:21:28;;;;;;;11.93;7.92;;;;;;;30.01;27.22;100168.29;1686858;83;25637;-64
2023/05/24 10:23:58;;;;;;;8.38;5.40;;;;;;;30.72;26.88;100169.38;1640657;86;27492;-64
2023/05/24 10:26:30;;;;;;;4.92;3.98;;;;;;;31.28;26.23;100174.20;1648991;86;25606;-65
2023/05/24 10:29:02;;;;;;;6.83;3.90;;;;;;;31.71;25.38;100169.67;1685532;84;25426;-66
2023/05/24 10:31:33;;;;;;;5.85;3.70;;;;;;;31.95;24.55;100176.30;1659808;86;25756;-64
2023/05/24 10:34:02;;;;;;;5.35;3.95;;;;;;;32.26;25.25;100160.73;1651304;86;25552;-64
2023/05/24 10:36:31;;;;;;;3.83;3.52;;;;;;;32.68;23.83;100188.98;1647630;86;27399;-65
2023/05/24 10:38:57;;;;;;;7.22;3.50;;;;;;;32.93;24.25;100167.52;1645011;86;25461;-64
2023/05/24 10:41:27;;;;;;;11.22;7.75;;;;;;;33.20;23.59;100173.75;1645050;86;25681;-64
2023/05/24 10:43:53;;;;;;;38.25;34.45;;;;;;;33.06;23.08;100172.34;1646025;85;26265;-64
2023/05/24 10:46:21;;;;;;;6.70;4.75;;;;;;;32.72;23.12;100167.20;1648898;86;25749;-63
2023/05/24 10:48:59;;;;;;;9.17;4.03;;;;;;;32.68;23.59;100205.02;1686267;83;27377;-62
2023/05/24 10:51:39;;;;;;;5.75;3.62;;;;;;;32.18;23.35;100174.22;1680159;84;25461;-63
2023/05/24 10:54:20;;;;;;;5.70;3.85;;;;;;;32.03;24.12;100169.81;1659970;86;25443;-63
2023/05/24 10:56:49;;;;;;;5.47;3.90;;;;;;;32.03;24.12;100169.81;1630494;86;25842;-65
2023/05/24 10:59:37;;;;;;;9.28;5.50;;;;;;;31.87;23.71;100178.44;1625808;87;25501;-67
2023/05/24 11:02:11;;;;;;;9.30;4.10;;;;;;;31.48;24.26;100188.44;1690416;84;28058;-63
2023/05/24 11:04:41;;;;;;;7.92;4.20;;;;;;;31.08;24.34;100182.89;1696981;84;25408;-62
2023/05/24 11:07:09;;;;;;;5.05;3.45;;;;;;;30.90;24.61;100173.73;1656002;86;25559;-62
2023/05/24 11:09:45;;;;;;;5.47;3.73;;;;;;;31.12;25.04;100185.55;1685002;84;25615;-58
2023/05/24 11:12:16;;;;;;;7.22;3.95;;;;;;;31.57;24.90;100186.37;1686714;84;25405;-64
2023/05/24 11:14:51;;;;;;;6.85;3.77;;;;;;;31.65;25.03;100186.24;1658222;84;27324;-66
2023/05/24 11:17:22;;;;;;;12.00;4.08;;;;;;;31.55;25.43;100187.42;1644617;86;25829;-66
2023/05/24 11:19:54;;;;;;;6.42;3.67;;;;;;;31.56;25.12;100182.01;1688176;84;25681;-65
2023/05/24 11:22:25;;;;;;;9.63;4.22;;;;;;;31.55;25.29;100190.22;1656447;85;25633;-65
2023/05/24 11:24:52;;;;;;;8.35;4.50;;;;;;;31.87;25.67;100187.59;1643250;86;25425;-64
2023/05/24 11:27:20;;;;;;;11.00;4.72;;;;;;;31.98;25.61;100196.36;1625307;87;28019;-65
2023/05/24 11:29:48;;;;;;;7.25;4.40;;;;;;;31.65;24.45;100189.84;1648706;86;25602;-65
2023/05/24 11:32:18;;;;;;;6.92;4.40;;;;;;;31.49;25.03;100196.23;1631816;87;25606;-66
2023/05/24 11:34:48;;;;;;;9.35;3.90;;;;;;;31.44;24.97;100192.00;1651954;86;25802;-66
2023/05/24 11:37:16;;;;;;;10.58;4.12;;;;;;;31.81;25.18;100193.64;1627478;87;25494;-63
2023/05/24 11:39:42;;;;;;;15.47;4.90;;;;;;;32.16;25.33;100193.49;1659371;86;27353;-63
2023/05/24 11:42:09;;;;;;;9.15;4.42;;;;;;;32.36;24.94;100197.30;1633044;85;25701;-63
2023/05/24 11:44:36;;;;;;;8.28;4.55;;;;;;;32.36;24.94;100197.30;1657082;86;25821;-63
2023/05/24 11:47:06;;;;;;;6.33;4.08;;;;;;;32.56;24.21;100206.05;1616210;87;26226;-63
2023/05/24 11:49:33;;;;;;;7.62;4.85;;;;;;;32.68;24.98;100202.22;1647888;86;25519;-63
2023/05/24 11:52:01;;;;;;;9.50;4.37;;;;;;;32.48;24.11;100192.81;1653474;86;27452;-60
2023/05/24 11:54:29;;;;;;;8.20;4.65;;;;;;;32.28;23.80;100189.80;1668805;85;33260;-60
2023/05/24 11:56:56;;;;;;;12.07;4.87;;;;;;;32.12;24.64;100195.04;1667186;85;25624;-60
2023/05/24 11:59:28;;;;;;;7.85;4.78;;;;;;;32.17;25.00;100193.03;1666904;86;25686;-60
2023/05/24 12:02:02;;;;;;;6.70;4.65;;;;;;;32.63;25.11;100183.23;1664363;85;25455;-60
2023/05/24 12:04:30;;;;;;;10.98;4.50;;;;;;;32.89;24.34;100190.08;1665337;84;28334;-60
2023/05/24 12:06:58;;;;;;;8.20;4.03;;;;;;;32.76;23.37;100195.08;1665525;85;25847;-60
2023/05/24 12:09:25;;;;;;;4.50;3.60;;;;;;;32.62;23.89;100195.03;1667704;86;25415;-60
2023/05/24 12:11:53;;;;;;;8.55;4.12;;;;;;;32.37;22.71;100191.86;1667654;86;26164;-60
2023/05/24 12:14:27;;;;;;;6.67;4.40;;;;;;;32.24;23.61;100205.95;1664526;85;25428;-60
2023/05/24 12:16:56;;;;;;;9.53;4.55;;;;;;;31.81;23.59;100200.00;1660902;85;28221;-59
2023/05/24 12:19:24;;;;;;;6.22;4.05;;;;;;;31.25;24.08;100190.47;1667739;86;25578;-59
2023/05/24 12:21:56;;;;;;;;;;;;;;;30.85;24.42;100195.25;1669001;85;25831;-59
2023/05/24 12:24:24;;;;;;;6.10;4.15;;;;;;;30.95;24.61;100196.13;1667354;85;25610;-59
2023/05/24 12:26:53;;;;;;;7.25;4.33;;;;;;;31.04;25.02;100194.02;1667852;86;33394;-59
2023/05/24 12:29:21;;;;;;;9.98;4.10;;;;;;;31.43;24.67;100194.62;1667662;85;27822;-59
2023/05/24 12:31:48;;;;;;;8.10;4.22;;;;;;;31.43;24.65;100198.21;1664519;85;25479;-59
2023/05/24 12:34:18;;;;;;;10.28;4.47;;;;;;;31.45;24.65;100198.53;1671342;85;25526;-59
2023/05/24 12:36:48;;;;;;;7.75;4.47;;;;;;;31.31;24.73;100191.28;1664329;85;25431;-60
2023/05/24 12:39:34;;;;;;;13.10;4.45;;;;;;;31.00;25.08;100198.96;1671367;85;25591;-59
2023/05/24 12:42:00;;;;;;;10.00;4.87;;;;;;;30.53;25.41;100197.11;1665816;85;28583;-59
2023/05/24 12:44:33;;;;;;;10.80;4.60;;;;;;;30.22;26.00;100194.08;1667987;85;25822;-59
2023/05/24 12:47:04;;;;;;;11.33;5.30;;;;;;;30.04;26.29;100191.09;1690391;82;25641;-59
2023/05/24 12:49:31;;;;;;;7.40;4.55;;;;;;;29.79;26.42;100192.63;1687437;84;25670;-59
2023/05/24 12:51:58;;;;;;;5.72;4.55;;;;;;;29.39;26.55;100194.37;1656104;86;25563;-59
2023/05/24 12:54:26;;;;;;;7.00;4.67;;;;;;;28.99;27.07;100194.00;1645571;86;27882;-59
2023/05/24 12:56:55;;;;;;;7.85;4.47;;;;;;;28.74;27.58;100195.27;1647831;86;25672;-59
2023/05/24 12:59:22;;;;;;;5.58;4.05;;;;;;;28.48;27.97;100188.12;1644815;87;30025;-58
2023/05/24 13:01:51;;;;;;;6.95;4.62;;;;;;;28.27;28.12;100186.03;1644673;86;25655;-59
2023/05/24 13:04:20;;;;;;;5.90;4.67;;;;;;;28.13;28.62;100188.55;1644729;87;25412;-59
2023/05/24 13:06:47;;;;;;;;;;;;;;;28.03;28.72;100186.79;1647103;87;27395;-60
2023/05/24 13:09:17;;;;;;;9.63;5.05;;;;;;;27.95;28.91;100188.94;1644626;87;25397;-59
2023/05/24 13:11:44;;;;;;;9.45;4.67;;;;;;;27.80;29.08;100190.43;1644752;85;25473;-59
2023/05/24 13:14:11;;;;;;;7.47;4.85;;;;;;;27.64;29.12;100192.56;1644607;87;25694;-58
2023/05/24 13:16:38;;;;;;;11.85;5.55;;;;;;;27.50;29.80;100197.03;1644661;87;25619;-58
2023/05/24 13:19:04;;;;;;;7.37;5.87;;;;;;;27.42;30.71;100205.33;1644738;86;27957;-59
2023/05/24 13:21:31;;;;;;;8.60;5.30;;;;;;;27.07;32.30;100205.52;1644562;87;25533;-58
2023/05/24 13:23:58;;;;;;;8.03;5.22;;;;;;;26.64;33.10;100206.28;1644627;87;25566;-58
2023/05/24 13:26:24;;;;;;;14.68;5.58;;;;;;;26.31;33.71;100206.59;1644630;87;25701;-58
2023/05/24 13:28:51;;;;;;;10.58;5.58;;;;;;;26.09;33.99;100211.05;1644650;87;25637;-58
2023/05/24 13:31:17;;;;;;;8.95;5.37;;;;;;;25.87;34.53;100200.22;1644663;87;27982;-58
2023/05/24 13:33:43;;;;;;;11.83;6.10;;;;;;;25.69;34.88;100207.97;1644540;87;25577;-59
2023/05/24 13:36:10;;;;;;;10.00;6.08;;;;;;;25.57;35.31;100208.52;1644672;87;25467;-59
2023/05/24 13:38:36;;;;;;;8.13;5.80;;;;;;;25.40;35.64;100210.30;1644588;87;25735;-59
2023/05/24 13:41:03;;;;;;;11.97;5.90;;;;;;;25.30;36.31;100210.59;1644667;87;25614;-59
2023/05/24 13:43:29;;;;;;;7.97;5.70;;;;;;;25.24;36.59;100215.77;1644634;87;29461;-59
2023/05/24 13:45:57;;;;;;;11.18;4.87;;;;;;;25.23;37.94;100230.02;1644640;87;25488;-59
2023/05/24 13:48:24;;;;;;;7.67;5.58;;;;;;;25.05;38.20;100219.92;1644613;87;25567;-60
2023/05/24 13:50:50;;;;;;;9.68;6.10;;;;;;;24.89;38.74;100217.70;1644628;87;25691;-59
2023/05/24 13:53:16;;;;;;;10.00;5.62;;;;;;;24.77;39.80;100218.18;1644694;87;25493;-60
2023/05/24 13:55:43;;;;;;;6.55;5.87;;;;;;;24.65;40.57;100217.30;1644689;86;27330;-60
2023/05/24 13:58:10;;;;;;;8.63;6.10;;;;;;;24.49;41.87;100215.03;1644613;87;25562;-59
2023/05/24 14:00:36;;;;;;;10.40;6.08;;;;;;;24.34;42.21;100218.48;1644636;87;25649;-60
2023/05/24 14:03:04;;;;;;;9.30;5.78;;;;;;;24.30;42.52;100217.13;1644584;87;26064;-60
2023/05/24 14:05:31;;;;;;;8.13;5.33;;;;;;;24.38;43.65;100217.27;1644889;87;25589;-60
2023/05/24 14:08:04;;;;;;;10.95;6.40;;;;;;;24.43;43.82;100216.84;1644588;87;27980;-60
2023/05/24 14:10:26;;;;;;;12.53;6.83;;;;;;;24.49;44.54;100220.56;1643478;87;27319;-60
2023/05/24 14:12:52;;;;;;;14.40;5.78;;;;;;;24.46;44.97;100228.27;1644608;87;25553;-60
2023/05/24 14:15:19;;;;;;;12.60;5.70;;;;;;;24.27;44.41;100236.49;1644680;87;25463;-59
2023/05/24 14:17:45;;;;;;;9.03;6.40;;;;;;;24.04;44.67;100229.50;1644624;87;25403;-59
2023/05/24 14:20:12;;;;;;;8.08;6.33;;;;;;;23.92;45.14;100237.64;1644589;87;27391;-60
2023/05/24 14:22:40;;;;;;;8.55;6.03;;;;;;;23.78;45.36;100228.80;1644579;87;25577;-59
2023/05/24 14:25:08;;;;;;;13.72;6.28;;;;;;;23.65;45.18;100223.52;1644627;87;25491;-59
2023/05/24 14:27:35;;;;;;;10.88;6.60;;;;;;;23.59;45.23;100229.28;1644712;87;25596;-59
2023/05/24 14:30:02;;;;;;;10.72;6.20;;;;;;;23.58;45.76;100231.26;1644623;87;25392;-59
2023/05/24 14:32:28;;;;;;;7.90;6.08;;;;;;;23.55;45.28;100219.63;1644685;87;27354;-59
2023/05/24 14:34:55;;;;;;;7.97;6.62;;;;;;;23.53;45.13;100219.82;1644518;87;27122;-59
2023/05/24 14:37:22;;;;;;;12.47;6.10;;;;;;;23.53;45.13;100223.39;1644627;86;25641;-57
2023/05/24 14:39:48;;;;;;;9.63;6.53;;;;;;;23.50;45.03;100231.86;1644581;87;25653;-60
2023/05/24 14:42:14;;;;;;;7.97;5.87;;;;;;;23.47;44.73;100231.88;1644636;87;25605;-59
2023/05/24 14:44:41;;;;;;;11.05;5.80;;;;;;;23.46;44.11;100235.80;1644572;87;27693;-61
2023/05/24 14:47:07;;;;;;;6.62;5.53;;;;;;;23.44;42.92;100234.05;1644533;87;27128;-63
2023/05/24 14:49:33;;;;;;;12.00;5.78;;;;;;;23.42;42.69;100234.44;1644646;87;25432;-62
2023/05/24 14:52:00;;;;;;;7.78;4.95;;;;;;;23.44;42.68;100233.44;1644630;86;25610;-61
2023/05/24 14:54:28;;;;;;;6.47;5.55;;;;;;;23.48;41.80;100229.31;1644360;87;25421;-63
2023/05/24 14:56:55;;;;;;;7.47;5.62;;;;;;;23.50;41.91;100229.70;1644277;87;27343;-62
2023/05/24 14:59:21;;;;;;;7.17;4.90;;;;;;;23.52;41.23;100231.46;1643922;87;25737;-61
2023/05/24 15:01:47;;;;;;;7.80;4.90;;;;;;;23.53;40.80;100231.67;1644615;87;25490;-60
2023/05/24 15:04:13;;;;;;;5.60;4.65;;;;;;;23.54;40.03;100229.69;1644599;87;25389;-61
2023/05/24 15:06:39;;;;;;;13.15;5.25;;;;;;;23.54;40.16;100232.45;1644598;87;25642;-60
2023/05/24 15:09:06;;;;;;;7.00;4.67;;;;;;;23.58;39.96;100230.45;1644604;87;27270;-61
2023/05/24 15:11:32;;;;;;;6.97;5.17;;;;;;;23.62;39.70;100227.10;1644548;87;25982;-62
2023/05/24 15:13:59;;;;;;;8.03;5.05;;;;;;;23.64;39.76;100225.50;1644581;87;25587;-62
2023/05/24 15:16:26;;;;;;;9.53;5.55;;;;;;;23.71;39.63;100230.21;1644565;87;26207;-62
2023/05/24 15:18:53;;;;;;;6.33;5.20;;;;;;;23.77;40.12;100225.86;1644630;86;25483;-61
2023/05/24 15:21:20;;;;;;;8.28;5.58;;;;;;;23.90;40.10;100225.44;1644597;86;27335;-62
2023/05/24 15:23:47;;;;;;;6.95;5.00;;;;;;;24.00;40.53;100230.13;1644516;87;25571;-62
2023/05/24 15:26:14;;;;;;;7.35;5.22;;;;;;;24.12;39.63;100232.41;1644600;87;25426;-62
2023/05/24 15:28:41;;;;;;;7.28;4.97;;;;;;;24.22;39.91;100235.71;1644528;86;26303;-61
2023/05/24 15:31:10;;;;;;;6.53;4.80;;;;;;;24.35;39.81;100237.42;1644688;87;25595;-62
2023/05/24 15:33:37;;;;;;;7.90;5.42;;;;;;;24.48;39.87;100238.33;1644549;87;27394;-61
2023/05/24 15:36:05;;;;;;;9.63;5.22;;;;;;;24.62;40.59;100239.66;1644451;87;27167;-61
2023/05/24 15:38:33;;;;;;;8.67;5.33;;;;;;;24.80;38.83;100240.87;1644800;87;25418;-61
2023/05/24 15:41:00;;;;;;;9.18;5.55;;;;;;;24.80;38.83;100240.87;1644682;87;25632;-60
2023/05/24 15:43:28;;;;;;;11.35;5.42;;;;;;;24.92;39.10;100256.97;1644557;87;25640;-61
2023/05/24 15:45:55;;;;;;;11.83;5.50;;;;;;;24.92;38.79;100262.50;1644761;87;27335;-62
2023/05/24 15:48:22;;;;;;;9.55;5.55;;;;;;;24.90;39.22;100265.50;1644440;87;25644;-62
2023/05/24 15:50:48;;;;;;;7.25;5.85;;;;;;;24.84;39.60;100274.81;1644586;87;25396;-62
2023/05/24 15:53:16;;;;;;;7.97;6.47;;;;;;;24.79;39.53;100271.91;1644509;86;26041;-62
2023/05/24 15:55:45;;;;;;;11.33;6.47;;;;;;;24.76;39.84;100276.09;1644471;87;25395;-62
2023/05/24 15:58:14;;;;;;;8.40;6.17;;;;;;;24.78;40.04;100273.09;1644597;87;27339;-62
2023/05/24 16:00:42;;;;;;;7.80;6.15;;;;;;;24.80;40.21;100278.22;1644621;87;25427;-61
2023/05/24 16:03:09;;;;;;;10.32;6.22;;;;;;;24.84;40.32;100279.56;1644600;87;25566;-61
2023/05/24 16:05:38;;;;;;;11.22;6.62;;;;;;;24.85;40.27;100281.93;1644628;87;26573;-63
2023/05/24 16:08:04;;;;;;;9.95;6.60;;;;;;;24.83;40.31;100289.86;1644552;87;25643;-61
2023/05/24 16:10:30;;;;;;;8.80;6.65;;;;;;;24.78;40.28;100288.91;1644546;87;27386;-63
2023/05/24 16:12:57;;;;;;;11.20;6.28;;;;;;;24.77;40.52;100297.81;1644543;87;25641;-62
2023/05/24 16:15:25;;;;;;;7.17;6.50;;;;;;;24.70;40.68;100300.59;1644532;87;25392;-62
2023/05/24 16:17:51;;;;;;;8.20;6.83;;;;;;;24.61;40.87;100296.91;1644518;87;25634;-61
2023/05/24 16:20:18;;;;;;;8.58;6.17;;;;;;;24.53;41.28;100298.11;1644446;87;25732;-62
2023/05/24 16:22:48;;;;;;;12.45;6.78;;;;;;;24.46;41.40;100305.67;1644570;87;27262;-62
2023/05/24 16:25:15;;;;;;;9.75;7.40;;;;;;;24.36;42.03;100310.06;1644507;87;26180;-63
2023/05/24 16:27:42;;;;;;;9.03;7.40;;;;;;;24.21;42.40;100306.58;1644717;87;25628;-63
2023/05/24 16:30:10;;;;;;;11.80;7.50;;;;;;;24.04;43.05;100299.94;1644694;87;25654;-64
2023/05/24 16:32:38;;;;;;;15.45;7.62;;;;;;;23.92;43.64;100301.77;1644759;87;25601;-63
2023/05/24 16:35:07;;;;;;;15.48;10.00;;;;;;;23.82;44.08;100309.70;1644890;87;33445;-63
2023/05/24 16:37:33;;;;;;;11.25;9.33;;;;;;;23.68;45.81;100307.74;1644621;87;25756;-63
2023/05/24 16:40:00;;;;;;;19.12;11.03;;;;;;;23.55;46.06;100303.02;1644728;87;25624;-62
2023/05/24 16:42:27;;;;;;;15.45;12.58;;;;;;;23.49;47.36;100312.30;1644779;87;25991;-62
2023/05/24 16:44:55;;;;;;;20.20;10.93;;;;;;;23.39;48.34;100311.72;1644783;87;25472;-61
2023/05/24 16:47:22;;;;;;;15.55;12.80;;;;;;;23.28;48.93;100323.56;1644650;87;28385;-62
2023/05/24 16:49:50;;;;;;;17.32;13.08;;;;;;;23.17;49.77;100325.52;1644645;87;25629;-62
2023/05/24 16:52:17;;;;;;;20.32;14.30;;;;;;;23.00;50.53;100327.66;1644687;87;25575;-63
2023/05/24 16:54:43;;;;;;;19.45;13.65;;;;;;;22.88;51.49;100326.88;1644713;86;25571;-60
2023/05/24 16:57:10;;;;;;;19.75;12.28;;;;;;;22.75;51.15;100330.59;1644733;87;25433;-64
2023/05/24 16:59:37;;;;;;;17.02;13.60;;;;;;;22.64;51.44;100333.91;1644723;87;27626;-62
2023/05/24 17:02:05;;;;;;;19.27;14.30;;;;;;;22.55;51.54;100331.52;1644651;87;25397;-62
2023/05/24 17:04:31;;;;;;;21.60;14.05;;;;;;;22.48;52.39;100337.62;1644732;87;25461;-62
2023/05/24 17:06:58;;;;;;;19.73;12.55;;;;;;;22.35;53.28;100342.69;1644699;87;25971;-62
2023/05/24 17:09:24;;;;;;;14.78;12.40;;;;;;;22.24;52.27;100340.47;1644713;87;25502;-63
2023/05/24 17:11:51;;;;;;;17.55;13.15;;;;;;;22.16;52.71;100344.55;1644748;87;27874;-64
2023/05/24 17:14:17;;;;;;;17.23;13.15;;;;;;;22.06;52.97;100337.62;1644659;87;25645;-63
2023/05/24 17:16:44;;;;;;;17.90;13.05;;;;;;;21.98;53.21;100336.78;1644718;87;25562;-63
2023/05/24 17:19:12;;;;;;;18.80;11.93;;;;;;;21.90;53.63;100342.06;1644736;87;25944;-62
2023/05/24 17:21:41;;;;;;;15.70;11.88;;;;;;;21.85;53.74;100349.31;1644787;87;25431;-62
2023/05/24 17:24:08;;;;;;;14.68;11.40;;;;;;;21.81;53.89;100346.52;1644673;87;28131;-60
2023/05/24 17:26:34;;;;;;;13.83;12.30;;;;;;;21.80;53.63;100351.24;1644652;87;25636;-61
2023/05/24 17:29:01;;;;;;;17.57;12.07;;;;;;;21.80;53.94;100358.72;1644758;87;25412;-61
2023/05/24 17:31:27;;;;;;;17.73;12.35;;;;;;;21.71;53.89;100359.06;1644660;87;25948;-57
2023/05/24 17:33:55;;;;;;;17.15;13.13;;;;;;;21.63;54.27;100362.34;1644699;87;25452;-62
2023/05/24 17:36:21;;;;;;;15.53;12.85;;;;;;;21.54;54.45;100368.77;1644708;87;27988;-61
2023/05/24 17:38:48;;;;;;;14.20;12.10;;;;;;;21.45;54.54;100375.95;1644553;87;25632;-63
2023/05/24 17:41:14;;;;;;;20.92;15.65;;;;;;;21.39;54.54;100378.84;1644739;87;25652;-63
2023/05/24 17:43:40;;;;;;;21.60;13.62;;;;;;;21.37;54.67;100374.91;1644679;86;26059;-59
2023/05/24 17:46:07;;;;;;;17.30;13.22;;;;;;;21.34;55.07;100376.44;1644766;87;25455;-58
2023/05/24 17:48:39;;;;;;;15.63;12.37;;;;;;;21.27;55.25;100371.66;1644656;87;27959;-61
2023/05/24 17:51:11;;;;;;;18.40;12.65;;;;;;;21.20;55.01;100374.95;1644632;87;25585;-64
2023/05/24 17:53:39;;;;;;;15.00;11.95;;;;;;;21.16;55.23;100379.61;1644706;86;25668;-63
2023/05/24 17:56:07;;;;;;;14.40;11.73;;;;;;;21.14;55.29;100385.49;1644865;87;26830;-60
2023/05/24 17:58:36;;;;;;;15.35;12.07;;;;;;;21.12;55.28;100386.46;1644703;87;25588;-61
2023/05/24 18:01:06;;;;;;;15.28;12.20;;;;;;;21.10;55.35;100385.27;1644750;86;27816;-63
2023/05/24 18:03:37;;;;;;;15.23;13.18;;;;;;;21.07;55.52;100388.96;1644134;87;25772;-63
2023/05/24 18:06:06;;;;;;;18.10;12.65;;;;;;;21.00;55.77;100387.52;1644700;87;25641;-62
2023/05/24 18:08:35;;;;;;;16.73;12.60;;;;;;;20.94;55.72;100392.36;1644581;86;26298;-60
2023/05/24 18:11:06;;;;;;;16.97;12.40;;;;;;;20.87;56.20;100388.95;1644749;87;25419;-62
2023/05/24 18:13:35;;;;;;;21.15;13.25;;;;;;;20.80;56.21;100395.16;1644631;86;27849;-62
2023/05/24 18:16:01;;;;;;;;;;;;;;;20.76;56.35;100403.97;1646862;86;25993;-62
2023/05/24 18:18:29;;;;;;;16.90;12.47;;;;;;;20.69;56.76;100403.30;1644698;87;25479;-59
2023/05/24 18:20:55;;;;;;;15.28;12.55;;;;;;;20.63;56.79;100410.88;1644419;87;25569;-58
2023/05/24 18:23:22;;;;;;;14.63;12.50;;;;;;;20.55;57.06;100416.04;1643450;87;25662;-63
2023/05/24 18:25:51;;;;;;;14.03;12.63;;;;;;;20.49;57.06;100413.63;1644050;86;27460;-61
2023/05/24 18:28:18;;;;;;;19.25;13.03;;;;;;;20.46;57.77;100417.11;1643982;87;25695;-62